Wybark, Oklahoma
Current Conditions -  °F | °C
As of 7:53 AM on Thursday 30 Oct 2014 (Local Time) from KMKO Reporting Station
Clear Clear  
Wind Chill: 40°   Ceiling: Unl
Heat Index: 44°   Visibility: 10mi
Dew Point: 42°   Wind: 7mph
Humidity: 93%   Direction: 170°S
Pressure: 30.14"   Gusts: NA
Location:  35.6818°N, 95.3578°W
Report Text: KMKO 301253Z AUTO 17006KT 10SM CLR 07/06 A3014 RMK AO2 SLP205 T00670056
Loading
Personal Weather Stations






























Interactive Weather Map
Tropical Storm Tracking
New forecast layout! Learn more

10-Day Weather Forecast

Advertisements
Track Severe Weather on mobile